Time;durP1;ratioP1;P1;durP2;ratioP2;P2;SDS_P1;SDS_P2;PMS_P1;PMS_P2;Temp;Humidity;BMP_temperature;BMP_pressure;BME280_temperature;BME280_humidity;BME280_pressure;Samples;Min_cycle;Max_cycle;Signal;HPM_P1;HPM_P2
2022/01/01 00:02:22;;;;;;;;;;;4.50;99.90;;;;;;5097937;28;19928;-52
2022/01/01 00:04:49;;;;;;;;;;;4.50;99.90;;;;;;5094819;28;19939;-52
2022/01/01 00:07:16;;;;;;;;;;;4.50;99.90;;;;;;5101463;28;19930;-52
2022/01/01 00:09:44;;;;;;;;;;;4.50;99.90;;;;;;5109985;28;20331;-52
2022/01/01 00:12:11;;;;;;;;;;;4.40;99.90;;;;;;5095319;28;19931;-52
2022/01/01 00:14:38;;;;;;;;;;;4.30;99.90;;;;;;5097027;28;19924;-52
2022/01/01 00:17:05;;;;;;;;;;;4.40;99.90;;;;;;5094268;28;19928;-51
2022/01/01 00:19:33;;;;;;;;;;;4.20;99.90;;;;;;5096060;28;20185;-54
2022/01/01 00:22:00;;;;;;;;;;;4.10;99.90;;;;;;5111517;28;20048;-52
2022/01/01 00:24:27;;;;;;;;;;;4.10;99.90;;;;;;5094294;28;19924;-52
2022/01/01 00:26:53;;;;;;;;;;;3.90;99.90;;;;;;5094013;28;19924;-52
2022/01/01 00:29:20;;;;;;;;;;;3.80;99.90;;;;;;5093635;28;19924;-52
2022/01/01 00:31:47;;;;;;;;;;;3.80;99.90;;;;;;5091970;28;19970;-51
2022/01/01 00:34:14;;;;;;;;;;;3.80;99.90;;;;;;5112260;28;20360;-51
2022/01/01 00:36:42;;;;;;;;;;;4.00;99.90;;;;;;5093468;28;19928;-52
2022/01/01 00:39:09;;;;;;;;;;;4.20;99.90;;;;;;5095331;28;19924;-52
2022/01/01 00:41:35;;;;;;;;;;;4.20;99.90;;;;;;5094517;28;19928;-51
2022/01/01 00:44:02;;;;;;;;;;;4.20;99.90;;;;;;5110296;28;19928;-51
2022/01/01 00:46:29;;;;;;;;;;;4.10;99.90;;;;;;5106267;28;19978;-51
2022/01/01 00:48:56;;;;;;;;;;;4.20;99.90;;;;;;5088564;28;19982;-51
2022/01/01 00:51:22;;;;;;;;;;;4.10;99.90;;;;;;5094808;28;19924;-51
2022/01/01 00:53:51;;;;;;;;;;;4.10;99.90;;;;;;5084184;28;19924;-52
2022/01/01 00:56:17;;;;;;;;;;;4.10;99.90;;;;;;5088572;28;20434;-51
2022/01/01 00:58:44;;;;;;;;;;;4.20;99.90;;;;;;5091082;28;20302;-52
2022/01/01 01:01:11;;;;;;;;;;;4.20;99.90;;;;;;5089995;28;19977;-51
2022/01/01 01:03:38;;;;;;;;;;;4.00;99.90;;;;;;5091517;28;19928;-52
2022/01/01 01:06:04;;;;;;;;;;;4.00;99.90;;;;;;5086792;28;20455;-51
2022/01/01 01:08:31;;;;;;;;;;;4.10;99.90;;;;;;5078791;28;20378;-52
2022/01/01 01:11:01;;;;;;;;;;;3.90;99.90;;;;;;5090985;28;19928;-52
2022/01/01 01:13:31;;;;;;;;;;;3.90;99.90;;;;;;5086457;28;19971;-52
2022/01/01 01:15:58;;;;;;;;;;;3.80;99.90;;;;;;5086604;28;19924;-51
2022/01/01 01:18:24;;;;;;;;;;;3.70;99.90;;;;;;5084157;28;19928;-52
2022/01/01 01:20:51;;;;;;;;;;;3.70;99.90;;;;;;5078047;28;19977;-52
2022/01/01 01:23:18;;;;;;;;;;;3.60;99.90;;;;;;5088868;28;19953;-51
2022/01/01 01:25:44;;;;;;;;;;;3.50;99.90;;;;;;5126233;22;20361;-46
2022/01/01 01:28:14;;;;;;;;;;;3.60;99.90;;;;;;5108146;28;20281;-48
2022/01/01 01:30:41;;;;;;;;;;;3.80;99.90;;;;;;5110190;28;20396;-46
2022/01/01 01:33:09;;;;;;;;;;;3.80;99.90;;;;;;5106867;28;19924;-47
2022/01/01 01:35:36;;;;;;;;;;;3.90;99.90;;;;;;5104892;28;19924;-49
2022/01/01 01:38:03;;;;;;;;;;;3.90;99.90;;;;;;5084799;28;20446;-47
2022/01/01 01:40:30;;;;;;;;;;;3.90;99.90;;;;;;5091976;28;19923;-47
2022/01/01 01:42:56;;;;;;;;;;;3.90;99.90;;;;;;5093245;28;20300;-46
2022/01/01 01:45:28;;;;;;;;;;;3.90;99.90;;;;;;5092182;28;19993;-48
2022/01/01 01:47:55;;;;;;;;;;;3.80;99.90;;;;;;5089545;28;19963;-47
2022/01/01 01:50:21;;;;;;;;;;;4.00;99.90;;;;;;5086263;28;19931;-47
2022/01/01 01:52:53;;;;;;;;;;;4.10;99.90;;;;;;5088484;28;19924;-46
2022/01/01 01:55:20;;;;;;;;;;;4.00;99.90;;;;;;5094112;28;19924;-47
2022/01/01 01:57:47;;;;;;;;;;;3.80;99.90;;;;;;5089955;28;20308;-47
2022/01/01 02:00:31;;;;;;;;;;;3.90;99.90;;;;;;5089466;28;20025;-47
2022/01/01 02:02:59;;;;;;;;;;;3.70;99.90;;;;;;5090404;28;20455;-47
2022/01/01 02:05:26;;;;;;;;;;;3.60;99.90;;;;;;5087643;28;19924;-47
2022/01/01 02:07:53;;;;;;;;;;;3.50;99.90;;;;;;5098232;28;19981;-47
2022/01/01 02:10:20;;;;;;;;;;;3.40;99.90;;;;;;5091265;28;19924;-48
2022/01/01 02:12:52;;;;;;;;;;;3.60;99.90;;;;;;5089709;28;20001;-47
2022/01/01 02:15:37;;;;;;;;;;;3.80;99.90;;;;;;5091985;28;19971;-47
2022/01/01 02:18:05;;;;;;;;;;;4.00;99.90;;;;;;5089039;28;19925;-47
2022/01/01 02:20:33;;;;;;;;;;;4.00;99.90;;;;;;5090831;28;19973;-47
2022/01/01 02:23:01;;;;;;;;;;;4.00;99.90;;;;;;5089538;28;19928;-47
2022/01/01 02:25:28;;;;;;;;;;;4.10;99.90;;;;;;5083093;28;19952;-47
2022/01/01 02:27:55;;;;;;;;;;;4.10;99.90;;;;;;5090585;28;19978;-46
2022/01/01 02:30:22;;;;;;;;;;;4.20;99.90;;;;;;5092687;28;19974;-48
2022/01/01 02:32:50;;;;;;;;;;;4.20;99.90;;;;;;5085000;28;20351;-47
2022/01/01 02:35:18;;;;;;;;;;;4.10;99.90;;;;;;5094245;28;19985;-47
2022/01/01 02:37:49;;;;;;;;;;;4.10;99.90;;;;;;5097565;28;20051;-46
2022/01/01 02:40:16;;;;;;;;;;;4.10;99.90;;;;;;5097747;28;19924;-47
2022/01/01 02:42:43;;;;;;;;;;;4.10;99.90;;;;;;5095784;28;19981;-47
2022/01/01 02:45:11;;;;;;;;;;;4.10;99.90;;;;;;5094723;28;19932;-46
2022/01/01 02:47:38;;;;;;;;;;;4.10;99.90;;;;;;5094921;28;19932;-47
2022/01/01 02:50:06;;;;;;;;;;;4.00;99.90;;;;;;5096211;28;20458;-46
2022/01/01 02:52:32;;;;;;;;;;;3.90;99.90;;;;;;5097098;28;19980;-47
2022/01/01 02:55:00;;;;;;;;;;;3.90;99.90;;;;;;5097431;28;20023;-46
2022/01/01 02:57:27;;;;;;;;;;;3.80;99.90;;;;;;5092328;28;19928;-47
2022/01/01 02:59:54;;;;;;;;;;;3.80;99.90;;;;;;5095812;28;19928;-46
2022/01/01 03:02:21;;;;;;;;;;;3.80;99.90;;;;;;5094444;28;19924;-47
2022/01/01 03:04:48;;;;;;;;;;;3.80;99.90;;;;;;5094030;28;19932;-47
2022/01/01 03:07:15;;;;;;;;;;;3.70;99.90;;;;;;5093611;28;19931;-47
2022/01/01 03:09:41;;;;;;;;;;;3.60;99.90;;;;;;5092219;28;20461;-48
2022/01/01 03:12:10;;;;;;;;;;;3.50;99.90;;;;;;5093301;28;19924;-47
2022/01/01 03:14:38;;;;;;;;;;;3.40;99.90;;;;;;5094672;28;20376;-47
2022/01/01 03:17:05;;;;;;;;;;;3.20;99.90;;;;;;5092715;28;19924;-47
2022/01/01 03:19:31;;;;;;;;;;;3.10;99.90;;;;;;5093994;28;19928;-46
2022/01/01 03:21:58;;;;;;;;;;;3.00;99.90;;;;;;5093746;28;20961;-46
2022/01/01 03:24:25;;;;;;;;;;;3.00;99.90;;;;;;5093087;28;20362;-47
2022/01/01 03:26:52;;;;;;;;;;;2.90;99.90;;;;;;5088019;28;19924;-47
2022/01/01 03:29:20;;;;;;;;;;;2.80;99.90;;;;;;5094387;28;19928;-47
2022/01/01 03:31:47;;;;;;;;;;;2.80;99.90;;;;;;5094098;28;19928;-47
2022/01/01 03:34:14;;;;;;;;;;;2.70;99.90;;;;;;5095240;28;19924;-47
2022/01/01 03:36:40;;;;;;;;;;;2.70;99.90;;;;;;5096188;28;19924;-47
2022/01/01 03:39:07;;;;;;;;;;;2.70;99.90;;;;;;5093142;28;20443;-47
2022/01/01 03:41:34;;;;;;;;;;;2.70;99.90;;;;;;5092671;28;19924;-46
2022/01/01 03:44:01;;;;;;;;;;;2.70;99.90;;;;;;5097948;28;20336;-47
2022/01/01 03:46:29;;;;;;;;;;;2.70;99.90;;;;;;5094323;28;19924;-47
2022/01/01 03:48:55;;;;;;;;;;;2.80;99.90;;;;;;5094323;28;19924;-47
2022/01/01 03:51:22;;;;;;;;;;;2.70;99.90;;;;;;5094288;28;19928;-46
2022/01/01 03:53:49;;;;;;;;;;;2.80;99.90;;;;;;5093968;28;20447;-48
2022/01/01 03:56:16;;;;;;;;;;;2.70;99.90;;;;;;5094583;28;19928;-47
2022/01/01 03:58:42;;;;;;;;;;;2.90;99.90;;;;;;5092943;28;19928;-46
2022/01/01 04:01:09;;;;;;;;;;;3.00;99.90;;;;;;5091985;28;20004;-47
2022/01/01 04:03:38;;;;;;;;;;;3.00;99.90;;;;;;5093959;28;19977;-47
2022/01/01 04:06:05;;;;;;;;;;;2.90;99.90;;;;;;5091907;28;19950;-45
2022/01/01 04:08:32;;;;;;;;;;;2.80;99.90;;;;;;5087308;28;19924;-47
2022/01/01 04:10:58;;;;;;;;;;;2.60;99.90;;;;;;5091183;28;19924;-46
2022/01/01 04:13:25;;;;;;;;;;;2.50;99.90;;;;;;5092261;28;19978;-51
2022/01/01 04:15:52;;;;;;;;;;;2.40;99.90;;;;;;5086032;28;19928;-48
2022/01/01 04:18:27;;;;;;;;;;;2.30;99.90;;;;;;5091811;28;19924;-47
2022/01/01 04:20:55;;;;;;;;;;;2.20;99.90;;;;;;5084930;28;19928;-48
2022/01/01 04:23:23;;;;;;;;;;;2.20;99.90;;;;;;5092121;28;19924;-47
2022/01/01 04:25:50;;;;;;;;;;;2.10;99.90;;;;;;5092810;28;20397;-48
2022/01/01 04:28:17;;;;;;;;;;;2.10;99.90;;;;;;5093596;28;19932;-47
2022/01/01 04:30:43;;;;;;;;;;;2.30;99.90;;;;;;5110663;28;19923;-47
2022/01/01 04:33:10;;;;;;;;;;;2.30;99.90;;;;;;5108281;28;19924;-47
2022/01/01 04:35:37;;;;;;;;;;;2.20;99.90;;;;;;5103403;28;19924;-47
2022/01/01 04:38:10;;;;;;;;;;;2.10;99.90;;;;;;5095157;28;19928;-47
2022/01/01 04:40:37;;;;;;;;;;;2.20;99.90;;;;;;5093463;28;20384;-47
2022/01/01 04:43:04;;;;;;;;;;;2.20;99.90;;;;;;5093361;28;20345;-47
2022/01/01 04:45:30;;;;;;;;;;;2.20;99.90;;;;;;5093026;28;19984;-47
2022/01/01 04:47:57;;;;;;;;;;;2.20;99.90;;;;;;5093137;28;19977;-47
2022/01/01 04:50:24;;;;;;;;;;;2.10;99.90;;;;;;5093165;28;19931;-47
2022/01/01 04:52:53;;;;;;;;;;;2.20;99.90;;;;;;5092762;28;19985;-47
2022/01/01 04:55:23;;;;;;;;;;;2.20;99.90;;;;;;5092802;28;19930;-47
2022/01/01 04:57:49;;;;;;;;;;;2.10;99.90;;;;;;5092876;28;20016;-46
2022/01/01 05:00:17;;;;;;;;;;;2.20;99.90;;;;;;5092737;28;19928;-46
2022/01/01 05:02:43;;;;;;;;;;;2.30;99.90;;;;;;5092785;28;19928;-47
2022/01/01 05:05:10;;;;;;;;;;;2.50;99.90;;;;;;5092286;28;19977;-47
2022/01/01 05:07:37;;;;;;;;;;;2.50;99.90;;;;;;5092740;28;19928;-48
2022/01/01 05:10:05;;;;;;;;;;;2.40;99.90;;;;;;5092329;28;19989;-47
2022/01/01 05:12:34;;;;;;;;;;;2.40;99.90;;;;;;5092814;28;19924;-48
2022/01/01 05:15:01;;;;;;;;;;;2.40;99.90;;;;;;5092562;28;19924;-47
2022/01/01 05:17:27;;;;;;;;;;;2.30;99.90;;;;;;5093219;28;20447;-48
2022/01/01 05:19:54;;;;;;;;;;;2.40;99.90;;;;;;5113100;28;19924;-47
2022/01/01 05:22:21;;;;;;;;;;;2.30;99.90;;;;;;5113058;28;19969;-48
2022/01/01 05:24:48;;;;;;;;;;;2.30;99.90;;;;;;5112913;28;19939;-48
2022/01/01 05:27:15;;;;;;;;;;;2.30;99.90;;;;;;5113008;28;19993;-47
2022/01/01 05:29:43;;;;;;;;;;;2.30;99.90;;;;;;5092340;28;19938;-48
2022/01/01 05:32:10;;;;;;;;;;;2.30;99.90;;;;;;5098402;28;19932;-48
2022/01/01 05:34:37;;;;;;;;;;;2.40;99.90;;;;;;5096801;28;19936;-47
2022/01/01 05:37:04;;;;;;;;;;;2.40;99.90;;;;;;5095749;28;19928;-47
2022/01/01 05:39:30;;;;;;;;;;;2.40;99.90;;;;;;5109487;28;20454;-47
2022/01/01 05:41:57;;;;;;;;;;;2.40;99.90;;;;;;5112609;28;19927;-47
2022/01/01 05:44:24;;;;;;;;;;;2.40;99.90;;;;;;5109698;28;19924;-47
2022/01/01 05:46:53;;;;;;;;;;;2.30;99.90;;;;;;5096304;28;19932;-46
2022/01/01 05:49:20;;;;;;;;;;;2.20;99.90;;;;;;5107781;28;19930;-48
2022/01/01 05:51:47;;;;;;;;;;;2.00;99.90;;;;;;5110609;28;19923;-47
2022/01/01 05:54:13;;;;;;;;;;;1.90;99.90;;;;;;5112540;28;19931;-47
2022/01/01 05:56:40;;;;;;;;;;;1.80;99.90;;;;;;5112422;28;19950;-48
2022/01/01 05:59:07;;;;;;;;;;;1.60;99.90;;;;;;5097998;28;19945;-48
2022/01/01 06:01:34;;;;;;;;;;;1.70;99.90;;;;;;5091922;28;20296;-49
2022/01/01 06:04:02;;;;;;;;;;;1.60;99.90;;;;;;5091496;28;20442;-47
2022/01/01 06:06:29;;;;;;;;;;;1.70;99.90;;;;;;5091412;28;19928;-48
2022/01/01 06:08:55;;;;;;;;;;;1.70;99.90;;;;;;5091663;28;19927;-48
2022/01/01 06:11:22;;;;;;;;;;;1.60;99.90;;;;;;5091793;28;19928;-48
2022/01/01 06:13:49;;;;;;;;;;;1.50;99.90;;;;;;5091913;28;19989;-47
2022/01/01 06:16:16;;;;;;;;;;;1.40;99.90;;;;;;5091618;28;19924;-48
2022/01/01 06:18:42;;;;;;;;;;;1.30;99.90;;;;;;5099882;28;20331;-48
2022/01/01 06:21:10;;;;;;;;;;;1.30;99.90;;;;;;5099214;28;20457;-47
2022/01/01 06:23:39;;;;;;;;;;;1.30;99.90;;;;;;5071722;28;19932;-47
2022/01/01 06:26:06;;;;;;;;;;;1.40;99.90;;;;;;5078478;28;20010;-47
2022/01/01 06:28:33;;;;;;;;;;;1.50;99.90;;;;;;5099003;28;19927;-47
2022/01/01 06:31:00;;;;;;;;;;;1.60;99.90;;;;;;5094132;28;19965;-47
2022/01/01 06:33:27;;;;;;;;;;;1.70;99.90;;;;;;5091725;28;19928;-47
2022/01/01 06:35:54;;;;;;;;;;;1.80;99.90;;;;;;5091545;28;19932;-47
2022/01/01 06:38:23;;;;;;;;;;;2.00;99.90;;;;;;5098257;28;19984;-47
2022/01/01 06:40:49;;;;;;;;;;;2.20;99.90;;;;;;5111927;28;19924;-46
2022/01/01 06:43:18;;;;;;;;;;;2.30;99.90;;;;;;5111989;28;19924;-47
2022/01/01 06:45:45;;;;;;;;;;;2.40;99.90;;;;;;5094021;28;19928;-47
2022/01/01 06:48:11;;;;;;;;;;;2.30;99.90;;;;;;5091384;28;19928;-48
2022/01/01 06:50:38;;;;;;;;;;;2.20;99.90;;;;;;5091694;28;19932;-47
2022/01/01 06:53:05;;;;;;;;;;;2.30;99.90;;;;;;5091486;28;20302;-46
2022/01/01 06:55:33;;;;;;;;;;;2.40;99.90;;;;;;5091346;28;19924;-47
2022/01/01 06:58:00;;;;;;;;;;;2.50;99.90;;;;;;5091164;28;19924;-45
2022/01/01 07:00:27;;;;;;;;;;;2.70;99.90;;;;;;5091034;28;19977;-46
2022/01/01 07:02:53;;;;;;;;;;;2.70;99.90;;;;;;5090970;28;19924;-46
2022/01/01 07:05:20;;;;;;;;;;;2.70;99.90;;;;;;5091196;28;19928;-47
2022/01/01 07:07:48;;;;;;;;;;;2.80;99.90;;;;;;5091971;28;19937;-46
2022/01/01 07:10:15;;;;;;;;;;;2.70;99.90;;;;;;5090085;28;19985;-48
2022/01/01 07:12:43;;;;;;;;;;;2.60;99.90;;;;;;5105886;28;19968;-48
2022/01/01 07:15:10;;;;;;;;;;;2.60;99.90;;;;;;5096154;28;19968;-45
2022/01/01 07:17:37;;;;;;;;;;;2.60;99.90;;;;;;5104521;28;19924;-48
2022/01/01 07:20:04;;;;;;;;;;;2.60;99.90;;;;;;5112613;28;20479;-46
2022/01/01 07:22:31;;;;;;;;;;;2.60;99.90;;;;;;5099367;28;20377;-46
2022/01/01 07:24:58;;;;;;;;;;;2.60;99.90;;;;;;5118394;22;19954;-50
2022/01/01 07:27:25;;;;;;;;;;;2.60;99.90;;;;;;5092768;28;19928;-50
2022/01/01 07:29:53;;;;;;;;;;;2.40;99.90;;;;;;5094779;28;19924;-50
2022/01/01 07:32:20;;;;;;;;;;;2.30;99.90;;;;;;5089521;28;20447;-50
2022/01/01 07:34:46;;;;;;;;;;;2.20;99.90;;;;;;5093727;28;19928;-50
2022/01/01 07:37:13;;;;;;;;;;;2.20;99.90;;;;;;5090902;28;20320;-50
2022/01/01 07:39:40;;;;;;;;;;;2.20;99.90;;;;;;5094689;28;19924;-50
2022/01/01 07:42:07;;;;;;;;;;;2.20;99.90;;;;;;5077911;28;19925;-51
2022/01/01 07:44:34;;;;;;;;;;;2.20;99.90;;;;;;5095129;28;19924;-50
2022/01/01 07:47:02;;;;;;;;;;;2.20;99.90;;;;;;5083810;28;19924;-51
2022/01/01 07:49:29;;;;;;;;;;;2.10;99.90;;;;;;5074588;28;19924;-50
2022/01/01 07:51:56;;;;;;;;;;;2.20;99.90;;;;;;5074309;28;19978;-50
2022/01/01 07:54:22;;;;;;;;;;;2.20;99.90;;;;;;5078586;28;19924;-51
2022/01/01 07:56:49;;;;;;;;;;;2.20;99.90;;;;;;5084959;28;19924;-50
2022/01/01 07:59:16;;;;;;;;;;;2.30;99.90;;;;;;5073640;28;19932;-50
2022/01/01 08:01:43;;;;;;;;;;;2.50;99.90;;;;;;5089994;28;19924;-50
2022/01/01 08:04:11;;;;;;;;;;;2.40;99.90;;;;;;5091479;28;19924;-51
2022/01/01 08:06:38;;;;;;;;;;;2.40;99.90;;;;;;5072621;28;19925;-51
2022/01/01 08:09:05;;;;;;;;;;;2.60;99.90;;;;;;5072266;28;19929;-51
2022/01/01 08:11:32;;;;;;;;;;;2.70;99.90;;;;;;5087903;28;19931;-50
2022/01/01 08:13:58;;;;;;;;;;;2.80;99.90;;;;;;5074169;28;19924;-51
2022/01/01 08:16:25;;;;;;;;;;;2.80;99.90;;;;;;5069789;28;19990;-51
2022/01/01 08:18:52;;;;;;;;;;;3.00;99.90;;;;;;5073693;28;19962;-51
2022/01/01 08:21:20;;;;;;;;;;;3.20;99.90;;;;;;5074036;28;19924;-50
2022/01/01 08:23:47;;;;;;;;;;;3.40;99.90;;;;;;5094536;28;19928;-50
2022/01/01 08:26:14;;;;;;;;;;;3.90;99.90;;;;;;5086180;28;19928;-50
2022/01/01 08:28:41;;;;;;;;;;;4.80;99.90;;;;;;5072559;28;19970;-50
2022/01/01 08:31:08;;;;;;;;;;;5.90;99.90;;;;;;5073549;28;19978;-50
2022/01/01 08:33:34;;;;;;;;;;;6.90;99.90;;;;;;5073896;28;20072;-50
2022/01/01 08:36:03;;;;;;;;;;;7.30;99.90;;;;;;5074768;28;20386;-50
2022/01/01 08:38:32;;;;;;;;;;;7.60;99.90;;;;;;5073392;28;20031;-50
2022/01/01 08:40:59;;;;;;;;;;;7.70;99.90;;;;;;5073777;28;19924;-51
2022/01/01 08:43:26;;;;;;;;;;;7.40;99.90;;;;;;5073323;28;20410;-50
2022/01/01 08:45:53;;;;;;;;;;;7.30;99.90;;;;;;5076805;28;19924;-50
2022/01/01 08:48:19;;;;;;;;;;;7.70;99.90;;;;;;5072928;28;19931;-49
2022/01/01 08:50:46;;;;;;;;;;;8.10;99.90;;;;;;5062708;28;19978;-50
2022/01/01 08:53:13;;;;;;;;;;;8.40;99.90;;;;;;5073698;28;19925;-50
2022/01/01 08:55:41;;;;;;;;;;;8.70;99.90;;;;;;5072426;28;19936;-50
2022/01/01 08:58:08;;;;;;;;;;;8.60;99.90;;;;;;5078194;28;19928;-50
2022/01/01 09:00:34;;;;;;;;;;;8.70;99.90;;;;;;5076180;28;19977;-51
2022/01/01 09:03:01;;;;;;;;;;;8.90;99.90;;;;;;5073185;28;20005;-50
2022/01/01 09:05:28;;;;;;;;;;;9.60;99.90;;;;;;5072773;28;19977;-50
2022/01/01 09:07:56;;;;;;;;;;;10.00;99.90;;;;;;5072897;28;20424;-51
2022/01/01 09:10:23;;;;;;;;;;;10.30;99.90;;;;;;5081367;28;19924;-50
2022/01/01 09:12:54;;;;;;;;;;;10.50;99.90;;;;;;5074131;28;19970;-50
2022/01/01 09:15:20;;;;;;;;;;;11.00;99.90;;;;;;5072722;28;20374;-51
2022/01/01 09:17:47;;;;;;;;;;;11.60;99.90;;;;;;5073364;28;19929;-51
2022/01/01 09:20:14;;;;;;;;;;;12.40;99.90;;;;;;5081296;28;19928;-51
2022/01/01 09:22:40;;;;;;;;;;;12.50;99.90;;;;;;5073599;28;19978;-51
2022/01/01 09:25:07;;;;;;;;;;;12.10;99.90;;;;;;5075336;28;19973;-51
2022/01/01 09:27:34;;;;;;;;;;;11.80;99.90;;;;;;5081767;28;19928;-51
2022/01/01 09:30:02;;;;;;;;;;;11.60;99.90;;;;;;5077190;28;20359;-51
2022/01/01 09:32:29;;;;;;;;;;;11.60;99.90;;;;;;5087593;28;19928;-50
2022/01/01 09:34:56;;;;;;;;;;;11.00;99.90;;;;;;5075623;28;20376;-50
2022/01/01 09:37:24;;;;;;;;;;;10.50;99.90;;;;;;5072794;28;20340;-50
2022/01/01 09:39:51;;;;;;;;;;;10.00;99.90;;;;;;5071937;28;19986;-51
2022/01/01 09:42:18;;;;;;;;;;;9.30;99.90;;;;;;5072295;28;19925;-50
2022/01/01 09:44:45;;;;;;;;;;;8.90;99.90;;;;;;5072683;28;19986;-50
2022/01/01 09:47:13;;;;;;;;;;;8.70;99.90;;;;;;5072605;28;19924;-51
2022/01/01 09:49:41;;;;;;;;;;;8.70;99.90;;;;;;5074646;28;19925;-51
2022/01/01 09:52:09;;;;;;;;;;;8.80;99.90;;;;;;5072336;28;19970;-51
2022/01/01 09:54:36;;;;;;;;;;;8.70;99.90;;;;;;5073742;28;19929;-51
2022/01/01 09:57:03;;;;;;;;;;;8.70;99.90;;;;;;5072546;28;19947;-51
2022/01/01 09:59:30;;;;;;;;;;;8.80;99.90;;;;;;5069108;28;19931;-51
2022/01/01 10:01:56;;;;;;;;;;;8.70;99.90;;;;;;5071792;28;20408;-51
2022/01/01 10:04:24;;;;;;;;;;;8.60;99.90;;;;;;5075262;28;20462;-51
2022/01/01 10:07:04;;;;;;;;;;;8.40;99.90;;;;;;5067761;28;19990;-51
2022/01/01 10:09:31;;;;;;;;;;;8.40;99.90;;;;;;5077948;28;19974;-52
2022/01/01 10:11:58;;;;;;;;;;;9.10;99.90;;;;;;5092482;28;19977;-51
2022/01/01 10:14:33;;;;;;;;;;;10.00;99.90;;;;;;5077750;28;19925;-51
2022/01/01 10:17:00;;;;;;;;;;;11.40;99.90;;;;;;5076170;28;19927;-51
2022/01/01 10:19:31;;;;;;;;;;;12.90;99.90;;;;;;5077356;28;19978;-51
2022/01/01 10:22:03;;;;;;;;;;;13.90;99.90;;;;;;5089773;28;19928;-52
2022/01/01 10:27:42;;;;;;;;;;;15.00;99.90;;;;;;5072062;28;19931;-51
2022/01/01 10:30:01;;;;;;;;;;;16.90;99.90;;;;;;5067456;28;19928;-51
2022/01/01 10:32:27;;;;;;;;;;;18.30;99.90;;;;;;5071413;28;20465;-52
2022/01/01 10:34:56;;;;;;;;;;;19.30;99.90;;;;;;5070609;28;20440;-52
2022/01/01 10:37:27;;;;;;;;;;;19.70;98.40;;;;;;5070622;28;19978;-52
2022/01/01 10:39:55;;;;;;;;;;;20.40;96.50;;;;;;5070691;28;19928;-52
2022/01/01 10:42:22;;;;;;;;;;;20.80;95.80;;;;;;5070919;28;19970;-51
2022/01/01 10:44:50;;;;;;;;;;;19.80;94.90;;;;;;5070332;28;19994;-51
2022/01/01 10:47:20;;;;;;;;;;;18.20;96.40;;;;;;5071336;28;19929;-52
2022/01/01 10:50:03;;;;;;;;;;;16.40;98.60;;;;;;5071406;28;20054;-52
2022/01/01 10:52:32;;;;;;;;;;;14.80;99.90;;;;;;5074593;28;19924;-51
2022/01/01 10:55:00;;;;;;;;;;;13.40;99.90;;;;;;5080542;28;19951;-51
2022/01/01 10:57:28;;;;;;;;;;;12.40;99.90;;;;;;5096000;28;19924;-51
2022/01/01 11:00:09;;;;;;;;;;;11.90;99.90;;;;;;5095507;28;19928;-51
2022/01/01 11:02:37;;;;;;;;;;;11.60;99.90;;;;;;5095664;28;19924;-51
2022/01/01 11:05:04;;;;;;;;;;;11.20;99.90;;;;;;5087590;28;20393;-51
2022/01/01 11:07:32;;;;;;;;;;;11.20;99.90;;;;;;5093476;28;20385;-51
2022/01/01 11:10:00;;;;;;;;;;;11.10;99.90;;;;;;5095535;28;19927;-51
2022/01/01 11:12:27;;;;;;;;;;;10.80;99.90;;;;;;5096194;28;19989;-51
2022/01/01 11:14:55;;;;;;;;;;;10.70;99.90;;;;;;5086421;28;20019;-51
2022/01/01 11:17:22;;;;;;;;;;;10.70;99.90;;;;;;5075053;28;19924;-51
2022/01/01 11:19:49;;;;;;;;;;;10.80;99.90;;;;;;5074826;28;19925;-51
2022/01/01 11:22:16;;;;;;;;;;;10.80;99.90;;;;;;5075257;28;19981;-51
2022/01/01 11:24:44;;;;;;;;;;;10.70;99.90;;;;;;5075443;28;19932;-51
2022/01/01 11:27:11;;;;;;;;;;;10.70;99.90;;;;;;5075375;28;19977;-51
2022/01/01 11:29:40;;;;;;;;;;;10.70;99.90;;;;;;5074722;28;19925;-51
2022/01/01 11:32:08;;;;;;;;;;;10.80;99.90;;;;;;5074879;28;20016;-51
2022/01/01 11:34:38;;;;;;;;;;;10.80;99.90;;;;;;5075194;28;19925;-52
2022/01/01 11:37:05;;;;;;;;;;;10.90;99.90;;;;;;5085953;28;19982;-51
2022/01/01 11:39:32;;;;;;;;;;;10.90;99.90;;;;;;5094773;28;20238;-52
2022/01/01 11:42:10;;;;;;;;;;;11.00;99.90;;;;;;5089873;28;20019;-51
2022/01/01 11:44:37;;;;;;;;;;;11.20;99.90;;;;;;5058648;28;19928;-51
2022/01/01 11:47:05;;;;;;;;;;;11.30;99.90;;;;;;5078500;28;19997;-51
2022/01/01 11:49:32;;;;;;;;;;;11.30;99.90;;;;;;5085488;28;19985;-52
2022/01/01 11:51:59;;;;;;;;;;;11.30;99.90;;;;;;5074347;28;19928;-52
2022/01/01 11:54:27;;;;;;;;;;;11.20;99.90;;;;;;5074233;28;19932;-52
2022/01/01 11:57:11;;;;;;;;;;;11.20;99.90;;;;;;5080959;28;20355;-52
2022/01/01 11:59:46;;;;;;;;;;;11.50;99.90;;;;;;5080137;28;19932;-52
2022/01/01 12:02:29;;;;;;;;;;;11.50;99.90;;;;;;5074203;28;20443;-51
2022/01/01 12:05:06;;;;;;;;;;;11.60;99.90;;;;;;5074737;28;20493;-51
2022/01/01 12:07:41;;;;;;;;;;;11.60;99.90;;;;;;5073938;28;19977;-50
2022/01/01 12:10:15;;;;;;;;;;;11.70;99.90;;;;;;5074158;28;19933;-51
2022/01/01 12:12:43;;;;;;;;;;;11.60;99.90;;;;;;5073923;28;20398;-51
2022/01/01 12:15:20;;;;;;;;;;;11.60;99.90;;;;;;5080772;28;19928;-51
2022/01/01 12:17:49;;;;;;;;;;;11.60;99.90;;;;;;5093975;28;19973;-51
2022/01/01 12:20:17;;;;;;;;;;;11.60;99.90;;;;;;5092640;28;20001;-51
2022/01/01 12:22:44;;;;;;;;;;;11.50;99.90;;;;;;5094104;28;19924;-52
2022/01/01 12:25:10;;;;;;;;;;;11.50;99.90;;;;;;5089304;28;19980;-50
2022/01/01 12:27:40;;;;;;;;;;;11.40;99.90;;;;;;5094176;28;19981;-50
2022/01/01 12:30:08;;;;;;;;;;;11.30;99.90;;;;;;5093794;28;20053;-50
2022/01/01 12:32:42;;;;;;;;;;;11.20;99.90;;;;;;5081231;28;20393;-51
2022/01/01 12:35:10;;;;;;;;;;;11.10;99.90;;;;;;5080011;28;20362;-51
2022/01/01 12:37:37;;;;;;;;;;;11.20;99.90;;;;;;5086722;28;19927;-51
2022/01/01 12:40:05;;;;;;;;;;;11.40;99.90;;;;;;5074358;28;19924;-51
2022/01/01 12:42:33;;;;;;;;;;;11.50;99.90;;;;;;5073037;28;20495;-51
2022/01/01 12:45:00;;;;;;;;;;;11.60;99.90;;;;;;5073765;28;20005;-51
2022/01/01 12:47:28;;;;;;;;;;;11.50;99.90;;;;;;5073197;28;19929;-51
2022/01/01 12:49:57;;;;;;;;;;;11.50;99.90;;;;;;5073805;28;20410;-51
2022/01/01 12:52:24;;;;;;;;;;;11.50;99.90;;;;;;5071028;28;19928;-51
2022/01/01 12:54:51;;;;;;;;;;;11.50;99.90;;;;;;5075290;28;19969;-52
2022/01/01 12:57:18;;;;;;;;;;;11.30;99.90;;;;;;5072112;28;19982;-52
2022/01/01 12:59:47;;;;;;;;;;;11.30;99.90;;;;;;5072305;28;20435;-51
2022/01/01 13:02:14;;;;;;;;;;;11.10;99.90;;;;;;5072800;28;19925;-52
2022/01/01 13:04:41;;;;;;;;;;;10.90;99.90;;;;;;5072906;28;19929;-52
2022/01/01 13:07:09;;;;;;;;;;;10.70;99.90;;;;;;5071059;28;19974;-52
2022/01/01 13:09:37;;;;;;;;;;;10.70;99.90;;;;;;5062307;28;19925;-52
2022/01/01 13:12:05;;;;;;;;;;;10.50;99.90;;;;;;5081040;28;19924;-51
2022/01/01 13:14:33;;;;;;;;;;;10.40;99.90;;;;;;5092890;28;19928;-52
2022/01/01 13:17:01;;;;;;;;;;;10.20;99.90;;;;;;5093250;28;19981;-51
2022/01/01 13:19:28;;;;;;;;;;;10.10;99.90;;;;;;5083634;28;19929;-51
2022/01/01 13:21:55;;;;;;;;;;;10.00;99.90;;;;;;5074360;28;19932;-51
2022/01/01 13:24:25;;;;;;;;;;;9.90;99.90;;;;;;5072805;28;19933;-52
2022/01/01 13:26:52;;;;;;;;;;;9.80;99.90;;;;;;5082268;28;19924;-51
2022/01/01 13:29:20;;;;;;;;;;;9.70;99.90;;;;;;5126403;22;19924;-50
2022/01/01 13:31:47;;;;;;;;;;;9.70;99.90;;;;;;5093097;28;19924;-49
2022/01/01 13:34:14;;;;;;;;;;;9.60;99.90;;;;;;5094256;28;19977;-49
2022/01/01 13:36:42;;;;;;;;;;;9.60;99.90;;;;;;5102495;28;20100;-51
2022/01/01 13:39:10;;;;;;;;;;;9.60;99.90;;;;;;5091748;28;20015;-51
2022/01/01 13:41:40;;;;;;;;;;;9.60;99.90;;;;;;5107058;28;20022;-52
2022/01/01 13:44:16;;;;;;;;;;;9.50;99.90;;;;;;5092269;28;19931;-51
2022/01/01 13:46:43;;;;;;;;;;;9.60;99.90;;;;;;5092213;28;20270;-52
2022/01/01 13:49:11;;;;;;;;;;;9.50;99.90;;;;;;5091700;28;20430;-49
2022/01/01 13:51:38;;;;;;;;;;;9.40;99.90;;;;;;5091778;28;19977;-50
2022/01/01 13:54:05;;;;;;;;;;;9.30;99.90;;;;;;5092020;28;19977;-49
2022/01/01 13:56:33;;;;;;;;;;;9.30;99.90;;;;;;5092043;28;19928;-50
2022/01/01 13:59:01;;;;;;;;;;;9.20;99.90;;;;;;5090911;28;19990;-50
2022/01/01 14:01:28;;;;;;;;;;;9.20;99.90;;;;;;5091313;28;19931;-50
2022/01/01 14:03:55;;;;;;;;;;;9.30;99.90;;;;;;5091107;28;19924;-52
2022/01/01 14:06:23;;;;;;;;;;;9.20;99.90;;;;;;5091509;28;20396;-50
2022/01/01 14:08:59;;;;;;;;;;;9.30;99.90;;;;;;5091202;28;20348;-49
2022/01/01 14:11:27;;;;;;;;;;;9.40;99.90;;;;;;5091280;28;19928;-50
2022/01/01 14:14:04;;;;;;;;;;;9.30;99.90;;;;;;5091950;28;19924;-51
2022/01/01 14:16:30;;;;;;;;;;;9.10;99.90;;;;;;5091677;28;19924;-49
2022/01/01 14:18:57;;;;;;;;;;;9.00;99.90;;;;;;5090833;28;19928;-49
2022/01/01 14:21:25;;;;;;;;;;;9.20;99.90;;;;;;5090539;28;20316;-48
2022/01/01 14:23:54;;;;;;;;;;;9.20;99.90;;;;;;5091389;28;19932;-47
2022/01/01 14:26:24;;;;;;;;;;;9.20;99.90;;;;;;5092658;28;19935;-49
2022/01/01 14:28:51;;;;;;;;;;;9.10;99.90;;;;;;5095162;28;19934;-48
2022/01/01 14:31:20;;;;;;;;;;;9.00;99.90;;;;;;5094434;28;20286;-51
2022/01/01 14:33:49;;;;;;;;;;;9.00;99.90;;;;;;5095471;28;19924;-47